Time;durP1;ratioP1;P1;durP2;ratioP2;P2;SDS_P1;SDS_P2;PMS_P1;PMS_P2;Temp;Humidity;BMP_temperature;BMP_pressure;BME280_temperature;BME280_humidity;BME280_pressure;Samples;Min_cycle;Max_cycle;Signal;HPM_P1;HPM_P2
2022/02/06 00:02:34;;;;;;;21.65;5.78;;;7.00;99.90;;;;;;4974146;28;20041;-80
2022/02/06 00:05:10;;;;;;;13.13;4.68;;;7.00;99.90;;;;;;4984112;28;20019;-88
2022/02/06 00:07:36;;;;;;;17.15;6.20;;;7.00;99.90;;;;;;4984666;28;20027;-79
2022/02/06 00:10:04;;;;;;;17.67;5.45;;;7.10;99.90;;;;;;4952355;28;20022;-80
2022/02/06 00:12:30;;;;;;;15.23;5.07;;;7.10;99.90;;;;;;4938374;28;20038;-82
2022/02/06 00:14:57;;;;;;;12.30;4.63;;;7.10;99.90;;;;;;4967750;28;20030;-79
2022/02/06 00:17:28;;;;;;;17.85;5.38;;;7.10;99.90;;;;;;4940647;28;20030;-80
2022/02/06 00:19:55;;;;;;;13.95;4.72;;;7.10;99.90;;;;;;4953942;28;20030;-82
2022/02/06 00:22:33;;;;;;;15.93;4.40;;;7.10;99.90;;;;;;4959511;28;20030;-80
2022/02/06 00:33:36;;;;;;;17.02;5.50;;;7.20;99.90;;;;;;4927766;28;20038;-78
2022/02/06 00:39:01;;;;;;;25.45;6.40;;;7.20;99.90;;;;;;4970669;28;20038;-80
2022/02/06 00:41:22;;;;;;;17.15;5.72;;;7.20;99.90;;;;;;4985630;28;20487;-78
2022/02/06 00:43:49;;;;;;;21.08;5.97;;;7.20;99.90;;;;;;4967577;28;20736;-78
2022/02/06 00:46:17;;;;;;;16.20;6.50;;;7.20;99.90;;;;;;4954522;28;20022;-77
2022/02/06 00:48:50;;;;;;;21.50;6.22;;;7.20;99.90;;;;;;4956003;28;20485;-78
2022/02/06 00:51:39;;;;;;;;;;;7.20;99.90;;;;;;4971743;28;20620;-78
2022/02/06 00:54:06;;;;;;;21.63;8.35;;;7.20;99.90;;;;;;4967919;28;19913;-79
2022/02/06 00:56:32;;;;;;;19.60;7.07;;;7.20;99.90;;;;;;4990690;28;20466;-78
2022/02/06 00:58:59;;;;;;;21.58;7.60;;;7.20;99.90;;;;;;4973194;28;20097;-78
2022/02/06 01:01:26;;;;;;;17.00;6.50;;;7.20;99.90;;;;;;4988925;28;20484;-78
2022/02/06 01:03:53;;;;;;;13.35;6.28;;;7.20;99.90;;;;;;4967321;28;20049;-78
2022/02/06 01:06:21;;;;;;;15.48;6.50;;;7.20;99.90;;;;;;4923816;28;20026;-79
2022/02/06 01:08:47;;;;;;;19.30;6.10;;;7.20;99.90;;;;;;4968534;28;20033;-78
2022/02/06 01:11:14;;;;;;;14.65;5.47;;;7.30;99.90;;;;;;4941880;28;20034;-78
2022/02/06 01:16:25;;;;;;;16.60;6.30;;;7.20;99.90;;;;;;4971246;28;20434;-77
2022/02/06 01:19:14;;;;;;;16.77;6.35;;;7.20;99.90;;;;;;4968356;28;20037;-77
2022/02/06 01:24:16;;;;;;;14.52;5.03;;;7.20;99.90;;;;;;4966702;28;20037;-78
2022/02/06 01:29:29;;;;;;;15.70;5.60;;;7.20;99.90;;;;;;4940144;28;20034;-78
2022/02/06 01:32:11;;;;;;;17.88;6.82;;;7.20;99.90;;;;;;4971255;28;20059;-79
2022/02/06 01:40:03;;;;;;;20.58;6.18;;;7.20;99.90;;;;;;4973765;28;20500;-78
2022/02/06 01:42:44;;;;;;;13.18;4.82;;;7.30;99.90;;;;;;4988579;28;20033;-78
2022/02/06 02:04:29;;;;;;;20.75;4.80;;;7.30;99.90;;;;;;4970392;28;20494;-82
2022/02/06 02:07:05;;;;;;;18.27;6.63;;;7.30;99.90;;;;;;4958893;28;20033;-81
2022/02/06 02:13:03;;;;;;;15.20;4.22;;;7.30;99.90;;;;;;4910285;29;20027;-82
2022/02/06 02:19:18;;;;;;;13.90;5.55;;;7.30;99.90;;;;;;4944738;28;20402;-80
2022/02/06 02:47:49;;;;;;;14.68;5.72;;;7.40;99.90;;;;;;4988298;28;20038;-78
2022/02/06 02:50:20;;;;;;;11.32;5.45;;;7.40;99.90;;;;;;4990417;28;20034;-79
2022/02/06 03:03:29;;;;;;;14.27;4.95;;;7.40;99.90;;;;;;4968151;28;20038;-79
2022/02/06 03:05:57;;;;;;;15.30;5.47;;;7.40;99.90;;;;;;4940384;28;20045;-78
2022/02/06 03:08:25;;;;;;;15.80;5.38;;;7.40;99.90;;;;;;4987392;28;20481;-78
2022/02/06 03:10:54;;;;;;;15.32;5.85;;;7.40;99.90;;;;;;4957698;28;20514;-78
2022/02/06 03:13:26;;;;;;;14.48;4.75;;;7.40;99.90;;;;;;4986273;28;20031;-79
2022/02/06 03:18:28;;;;;;;12.30;3.97;;;7.40;99.90;;;;;;4990242;28;20031;-79
2022/02/06 03:20:55;;;;;;;17.85;5.90;;;7.40;99.90;;;;;;4960073;28;20461;-80
2022/02/06 03:23:23;;;;;;;19.08;6.95;;;7.40;99.90;;;;;;4955972;28;20022;-79
2022/02/06 03:28:16;;;;;;;11.77;5.00;;;7.40;99.90;;;;;;4966255;28;20409;-79
2022/02/06 03:30:46;;;;;;;16.63;4.65;;;7.40;99.90;;;;;;4955516;28;20039;-77
2022/02/06 03:33:20;;;;;;;11.18;4.72;;;7.40;99.90;;;;;;4969609;28;20405;-77
2022/02/06 03:35:47;;;;;;;12.80;4.85;;;7.40;99.90;;;;;;4971641;28;20774;-77
2022/02/06 03:38:17;;;;;;;9.95;4.82;;;7.40;99.90;;;;;;4971778;28;20030;-78
2022/02/06 03:40:58;;;;;;;10.70;4.05;;;7.40;99.90;;;;;;4971833;28;20037;-77
2022/02/06 03:46:05;;;;;;;;;;;7.40;99.90;;;;;;4925133;28;20351;-78
2022/02/06 03:48:44;;;;;;;19.30;4.65;;;7.40;99.90;;;;;;4971767;28;19932;-77
2022/02/06 03:51:19;;;;;;;14.13;5.28;;;7.40;99.90;;;;;;4972261;28;20042;-77
2022/02/06 03:53:51;;;;;;;9.65;4.47;;;7.40;99.90;;;;;;4966935;28;20018;-77
2022/02/06 03:56:23;;;;;;;13.50;5.25;;;7.40;99.90;;;;;;4964533;28;20026;-77
2022/02/06 03:58:51;;;;;;;10.82;3.95;;;7.40;99.90;;;;;;4966864;28;20057;-77
2022/02/06 04:01:17;;;;;;;10.57;3.70;;;7.40;99.90;;;;;;4983515;28;20490;-78
2022/02/06 04:03:44;;;;;;;9.52;3.83;;;7.40;99.90;;;;;;4965841;28;20038;-77
2022/02/06 04:06:11;;;;;;;8.73;2.90;;;7.40;99.90;;;;;;4981490;28;20394;-77
2022/02/06 04:08:39;;;;;;;14.73;4.35;;;7.40;99.90;;;;;;4966293;28;20026;-77
2022/02/06 04:11:14;;;;;;;10.52;3.90;;;7.40;99.90;;;;;;4967146;28;20034;-78
2022/02/06 04:14:07;;;;;;;11.88;3.97;;;7.40;99.90;;;;;;4955058;28;20061;-78
2022/02/06 04:16:40;;;;;;;13.70;5.07;;;7.40;99.90;;;;;;4937337;28;20041;-77
2022/02/06 04:19:19;;;;;;;12.10;4.65;;;7.40;99.90;;;;;;4934452;28;20050;-77
2022/02/06 04:21:46;;;;;;;8.98;3.85;;;7.40;99.90;;;;;;4962554;28;20026;-77
2022/02/06 04:24:13;;;;;;;7.35;4.03;;;7.40;99.90;;;;;;4979295;28;20381;-77
2022/02/06 04:26:42;;;;;;;17.13;5.15;;;7.40;99.90;;;;;;4949634;28;20497;-77
2022/02/06 04:29:09;;;;;;;12.93;4.72;;;7.40;99.90;;;;;;4934231;28;20454;-78
2022/02/06 04:31:38;;;;;;;9.13;3.83;;;7.40;99.90;;;;;;4964813;28;20022;-77
2022/02/06 04:34:05;;;;;;;12.25;4.20;;;7.40;99.90;;;;;;4963798;28;20025;-77
2022/02/06 04:39:58;;;;;;;12.05;4.55;;;7.40;99.90;;;;;;4937170;28;20038;-76
2022/02/06 04:51:20;;;;;;;10.68;5.25;;;7.40;99.90;;;;;;4966262;28;20390;-77
2022/02/06 05:18:19;;;;;;;11.60;6.03;;;7.50;99.90;;;;;;4952825;28;20479;-80
2022/02/06 05:25:59;;;;;;;17.15;7.30;;;7.50;99.90;;;;;;4947424;28;20023;-79
2022/02/06 05:28:33;;;;;;;15.93;8.30;;;7.60;99.90;;;;;;4951647;28;20030;-79
2022/02/06 05:31:09;;;;;;;13.20;8.07;;;7.50;99.90;;;;;;4968859;28;20042;-80
2022/02/06 05:33:36;;;;;;;21.48;9.90;;;7.60;99.90;;;;;;4948222;28;20377;-81
2022/02/06 05:36:04;;;;;;;12.90;6.63;;;7.60;99.90;;;;;;4950126;28;20027;-81
2022/02/06 05:38:31;;;;;;;16.65;7.70;;;7.60;99.90;;;;;;4954561;28;20038;-82
2022/02/06 05:40:57;;;;;;;13.98;6.35;;;7.60;99.90;;;;;;4952441;28;20042;-81
2022/02/06 05:43:24;;;;;;;13.30;6.22;;;7.70;99.90;;;;;;4949102;28;20037;-80
2022/02/06 05:45:51;;;;;;;16.45;7.40;;;7.70;99.90;;;;;;4938766;28;20113;-80
2022/02/06 05:48:19;;;;;;;14.70;6.82;;;7.70;99.90;;;;;;4936694;28;20045;-80
2022/02/06 05:50:45;;;;;;;22.48;7.25;;;7.70;99.90;;;;;;4940031;28;20039;-81
2022/02/06 05:53:14;;;;;;;18.00;7.07;;;7.80;99.90;;;;;;4986109;28;20049;-80
2022/02/06 05:55:44;;;;;;;18.20;7.10;;;7.80;99.90;;;;;;4969567;28;20034;-81
2022/02/06 05:58:10;;;;;;;27.38;9.63;;;7.80;99.90;;;;;;4963248;28;20034;-82
2022/02/06 06:00:37;;;;;;;26.83;10.02;;;7.80;99.90;;;;;;4949669;28;20470;-83
2022/02/06 06:03:06;;;;;;;17.20;7.13;;;7.90;99.90;;;;;;4967897;28;20025;-80
2022/02/06 06:05:33;;;;;;;17.75;8.13;;;7.90;99.90;;;;;;4969563;28;20032;-80
2022/02/06 06:07:59;;;;;;;19.55;7.47;;;7.90;99.90;;;;;;4970764;28;20039;-81
2022/02/06 06:10:26;;;;;;;25.67;8.85;;;7.90;99.90;;;;;;4936087;28;20038;-79
2022/02/06 06:12:52;;;;;;;21.55;8.15;;;7.90;99.90;;;;;;4939716;28;20374;-80
2022/02/06 06:15:19;;;;;;;22.58;8.55;;;7.90;99.90;;;;;;4966470;28;20037;-81
2022/02/06 06:17:46;;;;;;;16.27;6.40;;;8.00;99.90;;;;;;4942985;28;20030;-80
2022/02/06 06:20:16;;;;;;;24.42;8.63;;;8.00;99.90;;;;;;4954148;28;20389;-78
2022/02/06 06:22:43;;;;;;;23.48;8.25;;;7.90;99.90;;;;;;4971025;28;20632;-80
2022/02/06 06:25:11;;;;;;;18.88;8.95;;;7.90;99.90;;;;;;4939690;28;20026;-80
2022/02/06 06:27:38;;;;;;;17.90;8.43;;;7.90;99.90;;;;;;4957325;28;20034;-83
2022/02/06 06:30:05;;;;;;;26.48;9.65;;;7.90;99.90;;;;;;4936050;28;20046;-82
2022/02/06 06:32:32;;;;;;;21.83;9.02;;;7.90;99.90;;;;;;4970972;28;20045;-83
2022/02/06 06:35:00;;;;;;;20.02;8.45;;;8.00;99.90;;;;;;4937616;28;20039;-81
2022/02/06 06:37:27;;;;;;;24.83;9.02;;;8.00;99.90;;;;;;4973131;28;20042;-82
2022/02/06 06:39:56;;;;;;;19.85;9.07;;;8.00;99.90;;;;;;4970082;28;20485;-85
2022/02/06 06:42:22;;;;;;;17.52;7.90;;;7.90;99.90;;;;;;4955101;28;20046;-82
2022/02/06 06:44:49;;;;;;;17.75;8.57;;;7.90;99.90;;;;;;4970688;28;20030;-83
2022/02/06 06:47:15;;;;;;;21.67;10.27;;;8.00;99.90;;;;;;4985710;28;20057;-83
2022/02/06 06:49:42;;;;;;;20.05;9.20;;;8.00;99.90;;;;;;4922354;28;20061;-83
2022/02/06 06:52:09;;;;;;;23.17;9.75;;;8.00;99.90;;;;;;4971222;28;20043;-85
2022/02/06 06:54:39;;;;;;;16.17;7.82;;;8.00;99.90;;;;;;4968251;28;20482;-83
2022/02/06 06:57:14;;;;;;;19.58;10.27;;;8.00;99.90;;;;;;4970777;28;20030;-83
2022/02/06 07:04:57;;;;;;;15.48;8.40;;;8.00;99.90;;;;;;4949956;28;20611;-85
2022/02/06 07:07:25;;;;;;;18.40;9.15;;;8.00;99.90;;;;;;4970919;28;20034;-81
2022/02/06 07:09:52;;;;;;;20.85;10.88;;;8.00;99.90;;;;;;4959575;28;21679;-82
2022/02/06 07:12:20;;;;;;;17.05;9.73;;;8.00;99.90;;;;;;4991511;28;20045;-82
2022/02/06 07:14:48;;;;;;;15.30;8.82;;;8.00;99.90;;;;;;4986907;28;20496;-83
2022/02/06 07:17:16;;;;;;;23.10;10.68;;;8.00;99.90;;;;;;4974239;28;20038;-79
2022/02/06 07:19:44;;;;;;;16.33;8.10;;;8.00;99.90;;;;;;4971333;28;20039;-80
2022/02/06 07:22:15;;;;;;;19.13;8.77;;;7.90;99.90;;;;;;4959856;28;20042;-80
2022/02/06 07:24:42;;;;;;;13.18;8.25;;;8.00;99.90;;;;;;4955682;28;20038;-79
2022/02/06 07:27:46;;;;;;;11.90;7.60;;;7.90;99.90;;;;;;4973178;28;20482;-79
2022/02/06 07:30:04;;;;;;;14.98;7.40;;;7.90;99.90;;;;;;4972611;28;21474;-79
2022/02/06 07:32:37;;;;;;;16.58;8.73;;;8.00;99.90;;;;;;4943014;28;20134;-79
2022/02/06 07:35:04;;;;;;;;;;;7.90;99.90;;;;;;4956731;28;20046;-78
2022/02/06 07:37:31;;;;;;;15.13;8.50;;;8.00;99.90;;;;;;4960544;28;19913;-79
2022/02/06 07:39:57;;;;;;;14.23;7.95;;;7.90;99.90;;;;;;4960075;28;20037;-79
2022/02/06 07:42:24;;;;;;;16.45;9.75;;;8.00;99.90;;;;;;4977569;28;20039;-83
2022/02/06 07:44:58;;;;;;;12.70;8.38;;;7.90;99.90;;;;;;4941925;28;20030;-81
2022/02/06 07:47:25;;;;;;;16.23;9.32;;;7.90;99.90;;;;;;4973851;28;20046;-82
2022/02/06 07:49:54;;;;;;;11.85;8.10;;;7.90;99.90;;;;;;4975467;28;20033;-86
2022/02/06 07:52:22;;;;;;;15.23;8.95;;;7.90;99.90;;;;;;4975676;28;20030;-79
2022/02/06 07:54:50;;;;;;;13.50;8.63;;;8.00;99.90;;;;;;4985585;28;20049;-79
2022/02/06 07:57:17;;;;;;;19.05;8.25;;;8.00;99.90;;;;;;4975601;28;20367;-79
2022/02/06 07:59:44;;;;;;;12.88;8.75;;;8.00;99.90;;;;;;4941924;28;20122;-78
2022/02/06 08:02:11;;;;;;;16.83;9.98;;;8.00;99.90;;;;;;4968942;28;20022;-79
2022/02/06 08:04:38;;;;;;;12.32;7.50;;;8.00;99.90;;;;;;4969435;28;20041;-78
2022/02/06 08:07:09;;;;;;;14.13;8.10;;;8.00;99.90;;;;;;4938873;28;20061;-78
2022/02/06 08:09:49;;;;;;;14.40;8.38;;;8.00;99.90;;;;;;4971607;28;20030;-76
2022/02/06 08:12:16;;;;;;;14.23;7.60;;;8.00;99.90;;;;;;4936319;28;20097;-76
2022/02/06 08:14:54;;;;;;;15.18;7.28;;;8.00;99.90;;;;;;4984385;28;20042;-76
2022/02/06 08:17:39;;;;;;;11.65;8.07;;;8.00;99.90;;;;;;4957987;28;20035;-76
2022/02/06 08:20:11;;;;;;;17.35;7.85;;;8.10;99.90;;;;;;4956786;28;20515;-78
2022/02/06 08:22:37;;;;;;;14.43;7.30;;;8.10;99.90;;;;;;4971064;28;20034;-77
2022/02/06 08:25:06;;;;;;;21.05;9.55;;;8.10;99.90;;;;;;4953851;28;20029;-78
2022/02/06 08:27:32;;;;;;;13.82;8.30;;;8.10;99.90;;;;;;4987913;28;20031;-77
2022/02/06 08:30:00;;;;;;;18.17;9.48;;;8.10;99.90;;;;;;4971344;28;20065;-78
2022/02/06 08:32:27;;;;;;;19.80;10.73;;;8.10;99.90;;;;;;4943166;28;20312;-77
2022/02/06 08:34:56;;;;;;;16.00;9.15;;;8.10;99.90;;;;;;4983345;28;20026;-78
2022/02/06 08:37:22;;;;;;;11.73;8.40;;;8.10;99.90;;;;;;4970869;28;20033;-78
2022/02/06 08:39:50;;;;;;;15.80;9.27;;;8.10;99.90;;;;;;4942138;28;20479;-77
2022/02/06 08:42:16;;;;;;;13.88;9.63;;;8.20;99.90;;;;;;4971368;28;20031;-78
2022/02/06 08:44:46;;;;;;;14.50;8.63;;;8.20;99.90;;;;;;4971655;28;20478;-82
2022/02/06 08:47:18;;;;;;;13.55;8.23;;;8.20;99.90;;;;;;4958908;28;20034;-79
2022/02/06 08:49:46;;;;;;;11.55;7.45;;;8.20;99.90;;;;;;4985451;28;20038;-78
2022/02/06 08:52:13;;;;;;;13.77;8.00;;;8.20;99.90;;;;;;4952290;28;20042;-83
2022/02/06 08:54:41;;;;;;;11.57;8.23;;;8.20;99.90;;;;;;4970527;28;20057;-85
2022/02/06 08:57:17;;;;;;;14.73;8.23;;;8.20;99.90;;;;;;4939918;28;20022;-76
2022/02/06 08:59:44;;;;;;;9.27;7.15;;;8.20;99.90;;;;;;4955202;28;20061;-78
2022/02/06 09:02:11;;;;;;;13.30;7.30;;;8.20;99.90;;;;;;4924401;28;20056;-85
2022/02/06 09:04:37;;;;;;;10.77;6.88;;;8.20;99.90;;;;;;4954130;28;20030;-79
2022/02/06 09:07:04;;;;;;;8.90;5.95;;;8.20;99.90;;;;;;4962727;28;20038;-79
2022/02/06 09:09:31;;;;;;;11.35;6.20;;;8.20;99.90;;;;;;4977560;28;20030;-80
2022/02/06 09:12:00;;;;;;;7.28;4.93;;;8.20;99.90;;;;;;4974653;28;20044;-83
2022/02/06 09:14:28;;;;;;;8.70;5.32;;;8.20;99.90;;;;;;4956966;28;20034;-77
2022/02/06 09:16:55;;;;;;;7.75;4.68;;;8.20;99.90;;;;;;4988651;28;20026;-77
2022/02/06 09:19:21;;;;;;;6.40;4.07;;;8.20;99.90;;;;;;4988373;28;20026;-77
2022/02/06 09:21:48;;;;;;;7.78;4.05;;;8.10;99.90;;;;;;4972404;28;20401;-76
2022/02/06 09:24:15;;;;;;;5.85;4.28;;;8.20;99.90;;;;;;4969016;28;20030;-76
2022/02/06 09:26:41;;;;;;;7.30;4.38;;;8.10;99.90;;;;;;4971697;28;20036;-76
2022/02/06 09:29:09;;;;;;;7.20;4.47;;;8.20;99.90;;;;;;4985389;28;20121;-77
2022/02/06 09:31:36;;;;;;;9.00;4.53;;;8.10;99.90;;;;;;4983643;28;20022;-79
2022/02/06 09:36:31;;;;;;;7.88;4.25;;;8.20;99.90;;;;;;4986208;28;20026;-77
2022/02/06 09:38:57;;;;;;;10.55;5.60;;;8.10;99.90;;;;;;4936261;28;20049;-77
2022/02/06 09:41:24;;;;;;;11.20;5.57;;;8.20;99.90;;;;;;4986076;28;20026;-77
2022/02/06 09:43:52;;;;;;;6.13;4.38;;;8.20;99.90;;;;;;4950090;28;20026;-78
2022/02/06 09:46:20;;;;;;;6.38;4.22;;;8.20;99.90;;;;;;4943614;28;20037;-78
2022/02/06 09:48:49;;;;;;;7.47;5.05;;;8.20;99.90;;;;;;4984125;28;20045;-79
2022/02/06 09:51:16;;;;;;;9.82;5.57;;;8.20;99.90;;;;;;4964323;28;20039;-77
2022/02/06 09:53:42;;;;;;;8.80;5.32;;;8.20;99.90;;;;;;4975626;28;20042;-78
2022/02/06 09:56:12;;;;;;;11.13;5.78;;;8.20;99.90;;;;;;4969031;28;20031;-79
2022/02/06 09:59:00;;;;;;;6.30;4.03;;;8.20;99.90;;;;;;4986201;28;20410;-81
2022/02/06 10:01:31;;;;;;;8.23;5.10;;;8.20;99.90;;;;;;4969850;28;20026;-77
2022/02/06 10:04:06;;;;;;;10.00;5.70;;;8.20;99.90;;;;;;4965537;28;20033;-79
2022/02/06 10:07:19;;;;;;;14.27;5.97;;;8.30;99.90;;;;;;4953089;28;20031;-79
2022/02/06 10:10:05;;;;;;;6.95;4.15;;;8.30;99.90;;;;;;4936467;28;20035;-79
2022/02/06 10:12:43;;;;;;;9.90;4.90;;;8.30;99.90;;;;;;4950885;28;20026;-83
2022/02/06 10:15:12;;;;;;;10.55;4.95;;;8.30;99.90;;;;;;4966535;28;20046;-83
2022/02/06 10:17:39;;;;;;;8.63;5.65;;;8.30;99.90;;;;;;4953103;28;20485;-81
2022/02/06 10:20:18;;;;;;;11.27;4.45;;;8.30;99.90;;;;;;4954045;28;20034;-81
2022/02/06 10:22:56;;;;;;;10.52;4.82;;;8.30;99.90;;;;;;4975695;28;20029;-84
2022/02/06 10:25:24;;;;;;;8.20;3.92;;;8.30;99.90;;;;;;4940712;28;20038;-82
2022/02/06 10:28:00;;;;;;;9.63;2.90;;;8.30;99.90;;;;;;4988951;28;20050;-83
2022/02/06 10:30:52;;;;;;;10.77;3.40;;;8.30;99.90;;;;;;4958015;28;20494;-84
2022/02/06 10:33:23;;;;;;;5.55;2.83;;;8.30;99.90;;;;;;4954759;28;20026;-82
2022/02/06 10:35:55;;;;;;;3.72;2.45;;;8.40;99.90;;;;;;4972297;28;20038;-82
2022/02/06 10:38:28;;;;;;;6.15;2.95;;;8.30;99.90;;;;;;4972693;28;20042;-85
2022/02/06 10:41:24;;;;;;;4.72;2.55;;;8.30;99.90;;;;;;4957566;28;20033;-86
2022/02/06 10:44:02;;;;;;;4.68;2.03;;;8.30;99.90;;;;;;4990098;28;20033;-85
2022/02/06 10:46:35;;;;;;;4.53;2.03;;;8.30;99.90;;;;;;4994030;28;20034;-81
2022/02/06 10:49:13;;;;;;;;;;;8.30;99.90;;;;;;4961538;28;20050;-85
2022/02/06 10:51:48;;;;;;;7.07;1.90;;;8.30;99.90;;;;;;4991322;28;19929;-87
2022/02/06 10:54:28;;;;;;;9.90;3.17;;;8.30;99.90;;;;;;4957437;28;20057;-84
2022/02/06 10:57:13;;;;;;;9.52;2.60;;;8.40;99.90;;;;;;4963586;28;20034;-81
2022/02/06 10:59:43;;;;;;;5.57;2.63;;;8.40;99.90;;;;;;4970303;28;20493;-82
2022/02/06 11:02:29;;;;;;;5.90;2.88;;;8.30;99.90;;;;;;4990803;28;20035;-85
2022/02/06 11:04:59;;;;;;;5.78;2.20;;;8.30;99.90;;;;;;4970954;28;20061;-80
2022/02/06 11:07:26;;;;;;;4.60;2.45;;;8.30;99.90;;;;;;4993725;28;20046;-81
2022/02/06 11:10:11;;;;;;;5.72;2.10;;;8.30;99.90;;;;;;4961651;28;20054;-81
2022/02/06 11:12:43;;;;;;;6.45;3.10;;;8.30;99.90;;;;;;4957678;28;20791;-81
2022/02/06 11:15:30;;;;;;;6.07;2.13;;;8.40;99.90;;;;;;4941707;28;20050;-81
2022/02/06 11:18:22;;;;;;;7.38;2.05;;;8.40;99.90;;;;;;4987384;28;20018;-81
2022/02/06 11:20:58;;;;;;;6.53;2.58;;;8.40;99.90;;;;;;4960058;28;20050;-79
2022/02/06 11:23:37;;;;;;;;;;;8.30;99.90;;;;;;4984166;28;20042;-82
2022/02/06 11:26:12;;;;;;;4.85;2.40;;;8.30;99.90;;;;;;4977073;28;19916;-81
2022/02/06 11:28:40;;;;;;;3.95;1.58;;;8.40;99.90;;;;;;4973663;28;20026;-80
2022/02/06 11:31:07;;;;;;;11.52;2.00;;;8.30;99.90;;;;;;4942280;28;20031;-80
2022/02/06 11:33:35;;;;;;;4.00;2.42;;;8.30;99.90;;;;;;4955215;28;20035;-81
2022/02/06 11:36:09;;;;;;;4.57;2.13;;;8.30;99.90;;;;;;4958715;28;20030;-83
2022/02/06 11:45:33;;;;;;;7.10;2.53;;;8.40;99.90;;;;;;4985897;28;20042;-90
2022/02/06 11:48:08;;;;;;;4.13;2.30;;;8.40;99.90;;;;;;4942968;28;20053;-86
2022/02/06 11:50:46;;;;;;;13.90;7.47;;;8.40;99.90;;;;;;4972473;28;20138;-86
2022/02/06 11:53:42;;;;;;;17.48;3.97;;;8.40;99.90;;;;;;4971865;28;20038;-93
2022/02/06 11:56:28;;;;;;;3.20;1.40;;;8.40;99.90;;;;;;4991685;28;20026;-82
2022/02/06 11:59:20;;;;;;;2.65;0.65;;;8.30;99.90;;;;;;4944959;28;20030;-86
2022/02/06 12:01:47;;;;;;;2.92;1.10;;;8.00;99.90;;;;;;4960853;28;20039;-84
2022/02/06 12:04:24;;;;;;;1.25;0.30;;;7.60;99.90;;;;;;4960653;28;20041;-82
2022/02/06 12:06:53;;;;;;;2.88;0.57;;;7.30;99.90;;;;;;4960562;28;20041;-81
2022/02/06 12:09:31;;;;;;;2.15;0.80;;;7.00;99.90;;;;;;4961198;28;20054;-81
2022/02/06 12:12:03;;;;;;;1.15;0.40;;;6.80;99.90;;;;;;4958479;28;20046;-81
2022/02/06 12:14:40;;;;;;;1.95;0.47;;;6.70;99.90;;;;;;4954597;28;20481;-80
2022/02/06 12:17:43;;;;;;;2.05;0.40;;;6.60;99.90;;;;;;4973371;28;20388;-79
2022/02/06 12:20:33;;;;;;;;;;;6.50;99.90;;;;;;4988612;28;20505;-79
2022/02/06 12:23:00;;;;;;;1.48;0.30;;;6.40;99.90;;;;;;4969608;28;20356;-80
2022/02/06 12:25:30;;;;;;;2.33;0.57;;;6.40;99.90;;;;;;4953378;28;20473;-80
2022/02/06 12:28:20;;;;;;;3.17;0.40;;;6.40;99.90;;;;;;4941610;28;21513;-85
2022/02/06 12:30:48;;;;;;;1.05;0.20;;;6.40;99.90;;;;;;4942031;28;20497;-79
2022/02/06 12:33:35;;;;;;;1.33;0.30;;;6.40;99.90;;;;;;4974840;28;20513;-76
2022/02/06 12:38:49;;;;;;;2.22;0.40;;;6.50;99.90;;;;;;4984232;28;20023;-77
2022/02/06 12:41:22;;;;;;;2.90;0.50;;;6.50;99.90;;;;;;4955998;28;20042;-77
2022/02/06 12:43:53;;;;;;;1.25;0.30;;;6.50;99.90;;;;;;4985287;28;20034;-77
2022/02/06 12:46:21;;;;;;;1.60;0.30;;;6.60;99.90;;;;;;4970203;28;20531;-78
2022/02/06 12:48:49;;;;;;;2.05;0.40;;;6.60;99.90;;;;;;4983461;28;20616;-77
2022/02/06 12:51:27;;;;;;;3.30;0.40;;;6.60;99.90;;;;;;4987263;28;20049;-78
2022/02/06 12:54:08;;;;;;;4.18;0.30;;;6.70;99.90;;;;;;4981234;28;20045;-77
2022/02/06 12:56:35;;;;;;;0.98;0.47;;;6.70;99.90;;;;;;4968945;28;20572;-77
2022/02/06 12:59:03;;;;;;;3.50;0.40;;;6.70;99.90;;;;;;4985810;28;20041;-78
2022/02/06 13:01:42;;;;;;;2.97;0.40;;;6.80;99.90;;;;;;4987289;28;20041;-78
2022/02/06 13:04:14;;;;;;;1.35;0.40;;;6.80;99.90;;;;;;4986251;28;20023;-77
2022/02/06 13:06:42;;;;;;;3.47;0.50;;;6.80;99.90;;;;;;4991302;28;20389;-80
2022/02/06 13:09:19;;;;;;;2.67;0.57;;;6.90;99.90;;;;;;4991600;28;20048;-80
2022/02/06 13:12:24;;;;;;;2.33;0.73;;;6.90;99.90;;;;;;4988714;28;20030;-81
2022/02/06 13:15:30;;;;;;;3.90;0.80;;;7.00;99.90;;;;;;4988857;28;20204;-79
2022/02/06 13:21:11;;;;;;;3.80;0.50;;;7.10;99.90;;;;;;4940921;29;20134;-81
2022/02/06 13:24:21;;;;;;;4.65;0.50;;;7.10;99.90;;;;;;4936925;28;20062;-84
2022/02/06 13:26:57;;;;;;;4.70;0.40;;;7.20;99.90;;;;;;4970290;28;20049;-84
2022/02/06 13:29:41;;;;;;;10.15;0.90;;;7.30;99.90;;;;;;4976999;28;20040;-84
2022/02/06 13:33:08;;;;;;;2.58;0.40;;;7.30;99.90;;;;;;4960810;28;20374;-84
2022/02/06 13:38:08;;;;;;;5.82;0.75;;;7.40;99.90;;;;;;4972791;28;20507;-84
2022/02/06 13:40:51;;;;;;;6.97;0.40;;;7.40;99.90;;;;;;4991589;28;20049;-84
2022/02/06 13:43:24;;;;;;;9.38;0.93;;;7.40;99.90;;;;;;4974820;28;20030;-88
2022/02/06 13:46:09;;;;;;;;;;;;;;;;;;;;;
2022/02/06 13:48:43;;;;;;;7.88;0.88;;;7.40;99.90;;;;;;4961021;28;20048;-86
2022/02/06 13:51:18;;;;;;;8.98;0.88;;;7.40;99.90;;;;;;4962940;28;20057;-87
2022/02/06 13:54:02;;;;;;;9.20;0.80;;;7.40;99.90;;;;;;4958091;28;20050;-88
2022/02/06 13:56:30;;;;;;;11.38;0.60;;;7.40;99.90;;;;;;4992643;28;20033;-81
2022/02/06 13:59:10;;;;;;;6.32;0.57;;;7.40;99.90;;;;;;4929879;28;20493;-81
2022/02/06 14:01:45;;;;;;;5.50;0.75;;;7.40;99.90;;;;;;4944442;28;20030;-83
2022/02/06 14:04:19;;;;;;;10.57;0.80;;;7.50;99.90;;;;;;4956851;28;20052;-76
2022/02/06 14:06:58;;;;;;;9.07;0.70;;;7.50;99.90;;;;;;4990763;28;20031;-76
2022/02/06 14:10:14;;;;;;;5.47;0.50;;;7.60;99.90;;;;;;4971998;28;20532;-78
2022/02/06 14:12:21;;;;;;;5.47;1.27;;;7.60;99.90;;;;;;4985937;28;20118;-77
2022/02/06 14:14:49;;;;;;;8.65;0.90;;;7.60;99.90;;;;;;4968453;28;20022;-78
2022/02/06 14:17:18;;;;;;;8.65;1.48;;;7.60;99.90;;;;;;4974334;28;20030;-78
2022/02/06 14:19:45;;;;;;;12.50;1.77;;;7.60;99.90;;;;;;4993001;28;20015;-78
2022/02/06 14:22:31;;;;;;;10.18;1.83;;;7.60;99.90;;;;;;4992125;28;20469;-78
2022/02/06 14:25:01;;;;;;;9.13;1.80;;;7.60;99.90;;;;;;4990880;28;20026;-78
2022/02/06 14:27:34;;;;;;;8.82;2.42;;;7.60;99.90;;;;;;4959487;28;20014;-78
2022/02/06 14:30:03;;;;;;;13.20;1.50;;;7.60;99.90;;;;;;4962704;28;20013;-78
2022/02/06 14:32:30;;;;;;;6.82;0.93;;;7.60;99.90;;;;;;4990476;28;20527;-78
2022/02/06 14:35:13;;;;;;;8.55;0.80;;;7.70;99.90;;;;;;4940026;28;20029;-81
2022/02/06 14:37:45;;;;;;;8.85;0.85;;;7.70;99.90;;;;;;4978291;28;20026;-79
2022/02/06 14:40:28;;;;;;;9.40;0.70;;;7.70;99.90;;;;;;4958926;28;20022;-78
2022/02/06 14:42:58;;;;;;;9.90;1.00;;;7.80;99.90;;;;;;4989690;28;20451;-78
2022/02/06 14:45:25;;;;;;;7.18;0.90;;;7.80;99.90;;;;;;4987713;28;20469;-78
2022/02/06 14:47:52;;;;;;;11.82;0.80;;;7.90;99.90;;;;;;4958499;28;20022;-78
2022/02/06 14:50:20;;;;;;;8.75;0.80;;;8.00;99.90;;;;;;4990970;28;20026;-79
2022/02/06 14:52:47;;;;;;;8.68;0.93;;;8.00;99.90;;;;;;4993855;28;20050;-79
2022/02/06 14:55:14;;;;;;;9.55;0.95;;;8.00;99.90;;;;;;4940877;28;20042;-78
2022/02/06 14:57:41;;;;;;;8.98;0.60;;;8.00;99.90;;;;;;4975736;28;20038;-79
2022/02/06 15:00:09;;;;;;;9.13;0.70;;;8.00;99.90;;;;;;4976901;28;20318;-78
2022/02/06 15:02:38;;;;;;;7.80;0.50;;;8.00;99.90;;;;;;4992506;28;20050;-79
2022/02/06 15:05:05;;;;;;;8.38;0.80;;;7.90;99.90;;;;;;4987688;28;20030;-79
2022/02/06 15:07:32;;;;;;;11.40;0.70;;;7.90;99.90;;;;;;4989824;28;20022;-79
2022/02/06 15:09:58;;;;;;;3.88;0.50;;;7.80;99.90;;;;;;4975041;28;20034;-80
2022/02/06 15:12:25;;;;;;;8.63;0.57;;;7.90;99.90;;;;;;4990163;28;20038;-82
2022/02/06 15:14:54;;;;;;;5.47;0.57;;;7.90;99.90;;;;;;4954814;28;20022;-79
2022/02/06 15:17:22;;;;;;;8.77;1.33;;;7.80;99.90;;;;;;4992991;28;20025;-78
2022/02/06 15:19:49;;;;;;;7.00;0.70;;;7.80;99.90;;;;;;4974179;28;20050;-79
2022/02/06 15:22:19;;;;;;;6.68;0.80;;;7.80;99.90;;;;;;4979850;28;20033;-78
2022/02/06 15:24:45;;;;;;;5.63;0.60;;;7.70;99.90;;;;;;4970227;28;20029;-78
2022/02/06 15:27:12;;;;;;;6.43;1.00;;;7.70;99.90;;;;;;4989346;28;20045;-82
2022/02/06 15:29:38;;;;;;;4.28;0.68;;;7.70;99.90;;;;;;4973521;28;20044;-81
2022/02/06 15:32:05;;;;;;;12.40;0.60;;;7.70;99.90;;;;;;4958205;28;20034;-85
2022/02/06 15:34:34;;;;;;;5.45;0.40;;;7.60;99.90;;;;;;4939062;28;20045;-84
2022/02/06 15:37:07;;;;;;;6.90;0.70;;;7.60;99.90;;;;;;4972498;28;20061;-83
2022/02/06 15:39:37;;;;;;;;;;;7.50;99.90;;;;;;4976090;28;20035;-83
2022/02/06 15:42:12;;;;;;;10.52;0.80;;;7.40;99.90;;;;;;4960742;28;19913;-82
2022/02/06 15:44:44;;;;;;;5.50;0.60;;;7.40;99.90;;;;;;4948162;28;20050;-82
2022/02/06 15:47:11;;;;;;;8.15;1.15;;;7.30;99.90;;;;;;4960597;28;20045;-81
2022/02/06 15:49:38;;;;;;;6.35;0.80;;;7.30;99.90;;;;;;4976419;28;20035;-82
2022/02/06 15:52:06;;;;;;;5.72;0.70;;;7.30;99.90;;;;;;4944299;28;20038;-81
2022/02/06 15:54:33;;;;;;;5.97;0.70;;;7.30;99.90;;;;;;4970962;28;20042;-83
2022/02/06 15:57:00;;;;;;;4.72;0.73;;;7.30;99.90;;;;;;4972461;28;20103;-81
2022/02/06 15:59:29;;;;;;;4.97;0.50;;;7.30;99.90;;;;;;4945610;28;20031;-89
2022/02/06 16:01:56;;;;;;;3.78;0.60;;;7.30;99.90;;;;;;4964217;28;20041;-82